Shadle Garland, Washington
Current Conditions -  °F | °C
As of 4:53 AM on Thursday 23 Oct 2014 (Local Time) from KSFF Reporting Station
Overcast Overcast  
Wind Chill: 55°   Ceiling: 11000
Heat Index: 55°   Visibility: 10mi
Dew Point: 47°   Wind: 6mph
Humidity: 74%   Direction: 230°SW
Pressure: 29.79"   Gusts: NA
Location:  47.6588°N, 117.425°W
Report Text: KSFF 231153Z 23005KT 10SM FEW090 OVC110 13/08 A2979 RMK AO2 SLP083 60002 70016 T01280083 10150 20128 51006
Loading
Personal Weather Stations






























Interactive Weather Map
Tropical Storm Tracking
New forecast layout! Learn more

10-Day Weather Forecast

Advertisements
Track Severe Weather on mobile